x

South Santa Rosa Is. Ca (46069) Wave Buoy

8:50pm - Wed 24th May 2017 All times are PDT. -7 hours from GMT.

  • Sig Wave height 4.9ft
  • Swell Direction
  • Peak Period 14s
  • Average Period 9s
  • Wind
    9mph, 11mph gusts
  • Sea Temp 56°f
  • Air Temp 57°f
  • Sea Pressure 1009.7mb
  • South Santa Rosa Is. Ca
  • South Santa Rosa Is. Ca

More Historic Weather Station data

Upgrade to MSW Pro to gain access to the past 30 days of data for over 8000 Wavebouys and Weather Stations around the globe.

Join Pro

Comparision Forecast

View Surf forecast
   
Wed 05/24 8:50pm 5ft 14s 9s 9 11 mph 1009.7mb 56f 57f
7:50pm 5ft 14s 9s 9 11 mph 1009.7mb 56f 56f
6:50pm 5ft 13s 9s 9 9 mph 1009.9mb 56f 56f
5:50pm 4.5ft 13s 9s 9 11 mph 1010.2mb 56f 56f
4:50pm 4.5ft 13s 8s 9 11 mph 1010.6mb 56f 56f
3:50pm 5ft 14s 9s 11 16 mph 1011.1mb 56f 56f
2:50pm 4.5ft 14s 8s 7 9 mph 1011.6mb 56f 56f
1:50pm 4.5ft 15s 7s 7 9 mph 1012.2mb 56f 55f
12:50pm 5ft 14s 7s 9 11 mph 1012.4mb 56f 55f
11:50am 5ft 14s 7s 11 13 mph 1012.4mb 56f 55f
10:50am 5.5ft 14s 7s 16 20 mph 1012.4mb 56f 55f
9:50am 5ft 15s 7s 16 18 mph 1012.7mb 56f 55f
8:50am 4.5ft 14s 6s 16 20 mph 1012.1mb 56f 54f
7:50am 4.5ft 14s 6s 16 20 mph 1012.5mb 56f 54f
6:50am 4.5ft 14s 6s 18 22 mph 1012.2mb 56f 54f
5:50am 4.5ft 15s 6s 16 20 mph 1012mb 55f 54f
4:50am 5ft 15s 7s 18 22 mph 1011.9mb 55f 53f
3:50am 5ft 15s 7s 18 20 mph 1011.8mb 55f 53f
2:50am 5ft 14s 6s 16 18 mph 1012mb 55f 53f
1:50am 6ft 15s 6s 16 20 mph 1012.5mb 55f 53f
12:50am 6ft 15s 6s 16 20 mph 1012.9mb 55f 53f
Tue 05/23 11:50pm 5ft 15s 6s 20 22 mph 1013.1mb 55f 53f
10:50pm 5.5ft 15s 6s 20 25 mph 1013.1mb 55f 53f
9:50pm 4.5ft 15s 5s 20 22 mph 1012.9mb 55f 54f
8:50pm 5ft 15s 6s 20 25 mph 1012.6mb 55f 54f
7:50pm 5ft 15s 6s 20 22 mph 1012.6mb 55f 54f
6:50pm 4.5ft 15s 6s 20 22 mph 1012.8mb 55f 54f
5:50pm 4.5ft 15s 5s 20 22 mph 1013.1mb 55f 55f
4:50pm 4.5ft 14s  -  18 22 mph 1014.1mb 55f 55f
3:50pm 4.5ft 15s 6s 18 22 mph 1014.5mb 55f 54f
2:50pm 4ft 15s 6s 20 22 mph 1015mb 56f 54f
1:50pm 4.5ft 15s 6s 18 22 mph 1015.2mb 55f 54f
12:50pm 4.5ft 15s 6s 18 20 mph 1015.4mb 55f 54f
11:50am 4.5ft 15s 6s 16 20 mph 1015.9mb 55f 54f
10:50am 4.5ft 15s 6s 13 18 mph 1016mb 55f 53f
9:50am 4.5ft 15s 6s 13 18 mph 1015.9mb 55f 52f
8:50am 4.5ft 14s 6s 13 18 mph 1014.9mb 55f 51f
7:50am 4.5ft 15s 6s 13 16 mph 1014.5mb 55f 51f
6:50am 4.5ft 15s 6s 13 18 mph 1014.1mb 55f 52f
5:50am 4.5ft 15s 6s 16 20 mph 1013.9mb 55f 52f
4:50am 5ft 15s 6s 13 18 mph 1014mb 55f 52f
3:50am 5ft 15s 6s 13 18 mph 1014.5mb 55f 52f
2:50am 5ft 15s 6s 16 18 mph 1014.2mb 55f 52f
1:50am 5.5ft 15s 6s 18 20 mph 1014.3mb 55f 53f
12:50am 5.5ft 16s 6s 20 25 mph 1014.5mb 55f 53f
Mon 05/22 11:50pm 6ft 16s 6s 22 25 mph 1014.7mb 55f 53f
10:50pm 5ft 15s 5s 22 25 mph 1014.6mb 55f 53f
9:50pm 5.5ft 16s 6s 20 25 mph 1014.3mb 55f 53f
8:50pm 5.5ft 16s 6s 20 25 mph 1014.2mb 55f 53f
7:50pm 5ft 16s 6s 20 25 mph 1013.8mb 55f 53f
6:50pm 5ft 16s 6s 18 22 mph 1013.7mb 56f 54f
5:50pm 5ft 16s 6s 20 25 mph 1013.8mb 56f 54f
4:50pm 5.5ft 14s 6s 20 22 mph 1014.2mb 56f 54f
3:50pm 6ft 16s 6s 20 22 mph 1014.8mb 56f 54f
2:50pm 5ft 16s 6s 16 20 mph 1015.3mb 56f 54f
1:50pm 6ft 13s 6s 16 20 mph 1015.4mb 56f 54f
12:50pm 5.5ft 16s 7s 16 20 mph 1015.7mb 55f 54f
11:50am 5ft 16s 6s 16 20 mph 1015.9mb 55f 53f
10:50am 5ft 16s 6s 16 18 mph 1015.9mb 55f 52f
9:50am 5ft 16s 6s 16 20 mph 1015.7mb 55f 51f
8:50am 5ft 9s 6s 16 20 mph 1015.1mb 55f 51f
7:50am 5.5ft 16s 6s 18 20 mph 1014.7mb 55f 51f
6:50am 5ft 17s 6s 16 20 mph 1014.4mb 55f 52f
5:50am 5.5ft 10s 6s 20 22 mph 1013.4mb 55f 52f
4:50am 5.5ft 9s 6s 20 25 mph 1013.2mb 55f 52f
3:50am 6ft 8s 6s 20 22 mph 1013.3mb 55f 52f
2:50am 6ft 9s 6s 20 25 mph 1013.7mb 55f 52f
1:50am 6ft 10s 6s 18 22 mph 1013.9mb 56f 53f
12:50am 6ft 15s 6s 18 22 mph 1013.9mb 56f 52f
Sun 05/21 11:50pm 6ft 5s 6s 20 25 mph 1014mb 56f 52f
10:50pm 6ft 8s 6s 20 25 mph 1014.2mb 56f 53f
9:50pm 5.5ft 14s 6s 20 25 mph 1014.1mb 56f 53f
8:50pm 5.5ft 14s 5s 20 25 mph 1013.6mb 56f 53f
7:50pm 5ft 11s 6s 22 27 mph 1013.1mb 56f 53f
6:50pm 5ft 11s 6s 22 27 mph 1013mb 56f 54f
5:50pm 4.5ft 9s 6s 18 20 mph 1012.9mb 56f 56f
4:50pm 5ft 12s 6s 16 18 mph 1013.3mb 56f 55f
3:50pm 5ft 14s 6s 20 22 mph 1013.6mb 56f 55f
2:50pm 6ft 9s 6s 20 22 mph 1013.8mb 56f 55f
1:50pm 5.5ft 9s 6s 18 20 mph 1014.1mb 56f 55f
12:50pm 6ft 9s 6s 16 20 mph 1014mb 56f 55f
11:50am 5.5ft 10s 6s 18 22 mph 1013.8mb 56f 53f
10:50am 5.5ft 8s 6s 18 20 mph 1013.8mb 56f 53f
9:50am 6ft 9s 6s 16 18 mph 1013.4mb 55f 52f
8:50am 6ft 9s 6s 16 18 mph 1013.3mb 55f 52f
7:50am 6ft 9s 6s 18 22 mph 1012.5mb 55f 52f
6:50am 6.5ft 9s 6s 20 25 mph 1011.6mb 55f 52f
5:50am 6ft 9s 6s 20 25 mph 1011mb 55f 52f